sensor_id;sensor_type;location;lat;lon;timestamp;temperature;humidity
50955;DHT22;36966;48.064;-0.792;2023-06-26T00:01:02;28.20;43.10
50955;DHT22;36966;48.064;-0.792;2023-06-26T00:03:21;28.20;43.10
50955;DHT22;36966;48.064;-0.792;2023-06-26T00:05:42;28.20;43.10
50955;DHT22;36966;48.064;-0.792;2023-06-26T00:08:01;28.10;43.10
50955;DHT22;36966;48.064;-0.792;2023-06-26T00:10:21;28.20;43.10
50955;DHT22;36966;48.064;-0.792;2023-06-26T00:12:40;28.10;43.10
50955;DHT22;36966;48.064;-0.792;2023-06-26T00:14:59;28.20;43.10
50955;DHT22;36966;48.064;-0.792;2023-06-26T00:17:18;28.10;43.20
50955;DHT22;36966;48.064;-0.792;2023-06-26T00:19:37;28.10;43.10
50955;DHT22;36966;48.064;-0.792;2023-06-26T00:21:56;28.10;43.10
50955;DHT22;36966;48.064;-0.792;2023-06-26T00:24:16;28.10;43.10
50955;DHT22;36966;48.064;-0.792;2023-06-26T00:26:36;28.10;43.10
50955;DHT22;36966;48.064;-0.792;2023-06-26T00:28:55;28.00;43.10
50955;DHT22;36966;48.064;-0.792;2023-06-26T00:31:14;28.10;43.10
50955;DHT22;36966;48.064;-0.792;2023-06-26T00:33:33;28.00;43.10
50955;DHT22;36966;48.064;-0.792;2023-06-26T00:35:53;28.00;43.10
50955;DHT22;36966;48.064;-0.792;2023-06-26T00:38:12;28.00;43.10
50955;DHT22;36966;48.064;-0.792;2023-06-26T00:40:31;28.00;43.10
50955;DHT22;36966;48.064;-0.792;2023-06-26T00:42:50;28.00;43.10
50955;DHT22;36966;48.064;-0.792;2023-06-26T00:45:11;28.00;43.10
50955;DHT22;36966;48.064;-0.792;2023-06-26T00:47:30;27.90;43.20
50955;DHT22;36966;48.064;-0.792;2023-06-26T00:49:49;28.00;43.10
50955;DHT22;36966;48.064;-0.792;2023-06-26T00:52:09;28.00;43.10
50955;DHT22;36966;48.064;-0.792;2023-06-26T00:54:28;27.90;43.10
50955;DHT22;36966;48.064;-0.792;2023-06-26T00:56:48;27.90;43.20
50955;DHT22;36966;48.064;-0.792;2023-06-26T00:59:07;28.00;43.20
50955;DHT22;36966;48.064;-0.792;2023-06-26T01:01:26;27.90;43.20
50955;DHT22;36966;48.064;-0.792;2023-06-26T01:03:46;27.90;43.20
50955;DHT22;36966;48.064;-0.792;2023-06-26T01:06:11;27.90;43.20
50955;DHT22;36966;48.064;-0.792;2023-06-26T01:08:30;27.90;43.20
50955;DHT22;36966;48.064;-0.792;2023-06-26T01:10:49;27.90;43.30
50955;DHT22;36966;48.064;-0.792;2023-06-26T01:13:09;27.90;43.30
50955;DHT22;36966;48.064;-0.792;2023-06-26T01:15:28;27.80;43.30
50955;DHT22;36966;48.064;-0.792;2023-06-26T01:17:48;27.90;43.30
50955;DHT22;36966;48.064;-0.792;2023-06-26T01:20:08;27.80;43.30
50955;DHT22;36966;48.064;-0.792;2023-06-26T01:22:38;27.80;43.30
50955;DHT22;36966;48.064;-0.792;2023-06-26T01:25:09;27.80;43.40
50955;DHT22;36966;48.064;-0.792;2023-06-26T01:27:31;27.80;43.40
50955;DHT22;36966;48.064;-0.792;2023-06-26T01:29:51;27.80;43.40
50955;DHT22;36966;48.064;-0.792;2023-06-26T01:32:10;27.80;43.40
50955;DHT22;36966;48.064;-0.792;2023-06-26T01:34:30;27.80;43.40
50955;DHT22;36966;48.064;-0.792;2023-06-26T01:36:49;27.80;43.40
50955;DHT22;36966;48.064;-0.792;2023-06-26T01:39:09;27.80;43.40
50955;DHT22;36966;48.064;-0.792;2023-06-26T01:41:28;27.80;43.40
50955;DHT22;36966;48.064;-0.792;2023-06-26T01:48:58;27.80;43.40
50955;DHT22;36966;48.064;-0.792;2023-06-26T01:51:18;27.70;43.40
50955;DHT22;36966;48.064;-0.792;2023-06-26T01:53:41;27.70;43.40
50955;DHT22;36966;48.064;-0.792;2023-06-26T01:56:03;27.70;43.40
50955;DHT22;36966;48.064;-0.792;2023-06-26T01:58:25;27.70;43.40
50955;DHT22;36966;48.064;-0.792;2023-06-26T02:00:45;27.70;43.40
50955;DHT22;36966;48.064;-0.792;2023-06-26T02:03:04;27.70;43.40
50955;DHT22;36966;48.064;-0.792;2023-06-26T02:05:25;27.70;43.40
50955;DHT22;36966;48.064;-0.792;2023-06-26T02:07:44;27.70;43.40
50955;DHT22;36966;48.064;-0.792;2023-06-26T02:10:04;27.70;43.40
50955;DHT22;36966;48.064;-0.792;2023-06-26T02:12:23;27.70;43.40
50955;DHT22;36966;48.064;-0.792;2023-06-26T02:14:42;27.70;43.40
50955;DHT22;36966;48.064;-0.792;2023-06-26T02:17:01;27.70;43.50
50955;DHT22;36966;48.064;-0.792;2023-06-26T02:19:21;27.70;43.40
50955;DHT22;36966;48.064;-0.792;2023-06-26T02:21:40;27.60;43.40
50955;DHT22;36966;48.064;-0.792;2023-06-26T02:24:00;27.60;43.40
50955;DHT22;36966;48.064;-0.792;2023-06-26T02:26:19;27.70;43.40
50955;DHT22;36966;48.064;-0.792;2023-06-26T02:28:40;27.70;43.40
50955;DHT22;36966;48.064;-0.792;2023-06-26T02:30:59;27.60;43.40
50955;DHT22;36966;48.064;-0.792;2023-06-26T02:33:18;27.60;43.40
50955;DHT22;36966;48.064;-0.792;2023-06-26T02:35:37;27.60;43.40
50955;DHT22;36966;48.064;-0.792;2023-06-26T02:37:57;27.60;43.40
50955;DHT22;36966;48.064;-0.792;2023-06-26T02:40:16;27.60;43.40
50955;DHT22;36966;48.064;-0.792;2023-06-26T02:42:35;27.60;43.40
50955;DHT22;36966;48.064;-0.792;2023-06-26T02:45:05;27.50;43.40
50955;DHT22;36966;48.064;-0.792;2023-06-26T02:47:25;27.50;43.40
50955;DHT22;36966;48.064;-0.792;2023-06-26T02:49:50;27.50;43.40
50955;DHT22;36966;48.064;-0.792;2023-06-26T02:52:09;27.50;43.40
50955;DHT22;36966;48.064;-0.792;2023-06-26T02:54:28;27.50;43.50
50955;DHT22;36966;48.064;-0.792;2023-06-26T02:56:48;27.50;43.50
50955;DHT22;36966;48.064;-0.792;2023-06-26T02:59:07;27.50;43.50
50955;DHT22;36966;48.064;-0.792;2023-06-26T03:01:26;27.50;43.50
50955;DHT22;36966;48.064;-0.792;2023-06-26T03:03:46;27.50;43.50
50955;DHT22;36966;48.064;-0.792;2023-06-26T03:06:06;27.50;43.50
50955;DHT22;36966;48.064;-0.792;2023-06-26T03:08:26;27.50;43.60
50955;DHT22;36966;48.064;-0.792;2023-06-26T03:10:46;27.50;43.50
50955;DHT22;36966;48.064;-0.792;2023-06-26T03:13:05;27.40;43.60
50955;DHT22;36966;48.064;-0.792;2023-06-26T03:15:32;27.40;43.50
50955;DHT22;36966;48.064;-0.792;2023-06-26T03:17:51;27.40;43.60
50955;DHT22;36966;48.064;-0.792;2023-06-26T03:20:11;27.40;43.50
50955;DHT22;36966;48.064;-0.792;2023-06-26T03:22:31;27.40;43.50
50955;DHT22;36966;48.064;-0.792;2023-06-26T03:24:50;27.40;43.50
50955;DHT22;36966;48.064;-0.792;2023-06-26T03:27:09;27.30;43.50
50955;DHT22;36966;48.064;-0.792;2023-06-26T03:29:28;27.40;43.60
50955;DHT22;36966;48.064;-0.792;2023-06-26T03:31:48;27.40;43.60
50955;DHT22;36966;48.064;-0.792;2023-06-26T03:34:08;27.30;43.60
50955;DHT22;36966;48.064;-0.792;2023-06-26T03:36:27;27.40;43.60
50955;DHT22;36966;48.064;-0.792;2023-06-26T03:38:47;27.40;43.60
50955;DHT22;36966;48.064;-0.792;2023-06-26T03:41:06;27.30;43.60
50955;DHT22;36966;48.064;-0.792;2023-06-26T03:43:26;27.30;43.60
50955;DHT22;36966;48.064;-0.792;2023-06-26T03:45:48;27.30;43.60
50955;DHT22;36966;48.064;-0.792;2023-06-26T03:48:08;27.30;43.60
50955;DHT22;36966;48.064;-0.792;2023-06-26T03:50:27;27.30;43.70
50955;DHT22;36966;48.064;-0.792;2023-06-26T03:52:47;27.20;44.10
50955;DHT22;36966;48.064;-0.792;2023-06-26T03:55:18;27.20;44.60
50955;DHT22;36966;48.064;-0.792;2023-06-26T03:57:38;27.20;44.50
50955;DHT22;36966;48.064;-0.792;2023-06-26T03:59:57;27.20;44.40
50955;DHT22;36966;48.064;-0.792;2023-06-26T04:02:16;27.20;44.40
50955;DHT22;36966;48.064;-0.792;2023-06-26T04:04:35;27.20;44.30
50955;DHT22;36966;48.064;-0.792;2023-06-26T04:06:54;27.20;44.30
50955;DHT22;36966;48.064;-0.792;2023-06-26T04:09:13;27.20;44.40
50955;DHT22;36966;48.064;-0.792;2023-06-26T04:11:33;27.20;44.30
50955;DHT22;36966;48.064;-0.792;2023-06-26T04:13:52;27.20;44.50
50955;DHT22;36966;48.064;-0.792;2023-06-26T04:16:11;27.20;44.50
50955;DHT22;36966;48.064;-0.792;2023-06-26T04:18:31;27.20;44.50
50955;DHT22;36966;48.064;-0.792;2023-06-26T04:21:07;27.20;44.50
50955;DHT22;36966;48.064;-0.792;2023-06-26T04:23:26;27.20;44.50
50955;DHT22;36966;48.064;-0.792;2023-06-26T04:25:46;27.20;44.60
50955;DHT22;36966;48.064;-0.792;2023-06-26T04:28:06;27.20;44.60
50955;DHT22;36966;48.064;-0.792;2023-06-26T04:30:29;27.20;44.60
50955;DHT22;36966;48.064;-0.792;2023-06-26T04:32:48;27.20;44.60
50955;DHT22;36966;48.064;-0.792;2023-06-26T04:35:08;27.10;44.70
50955;DHT22;36966;48.064;-0.792;2023-06-26T04:37:29;27.10;44.60
50955;DHT22;36966;48.064;-0.792;2023-06-26T04:39:49;27.10;44.70
50955;DHT22;36966;48.064;-0.792;2023-06-26T04:42:08;27.10;44.80
50955;DHT22;36966;48.064;-0.792;2023-06-26T04:44:29;27.10;44.70
50955;DHT22;36966;48.064;-0.792;2023-06-26T04:46:48;27.10;44.50
50955;DHT22;36966;48.064;-0.792;2023-06-26T04:49:10;27.10;44.50
50955;DHT22;36966;48.064;-0.792;2023-06-26T04:51:29;27.10;44.50
50955;DHT22;36966;48.064;-0.792;2023-06-26T04:53:49;27.10;44.50
50955;DHT22;36966;48.064;-0.792;2023-06-26T04:56:08;27.10;44.50
50955;DHT22;36966;48.064;-0.792;2023-06-26T04:58:28;27.10;44.40
50955;DHT22;36966;48.064;-0.792;2023-06-26T05:00:47;27.10;44.50
50955;DHT22;36966;48.064;-0.792;2023-06-26T05:03:07;27.10;44.50
50955;DHT22;36966;48.064;-0.792;2023-06-26T05:05:29;27.00;44.60
50955;DHT22;36966;48.064;-0.792;2023-06-26T05:07:49;27.10;44.60
50955;DHT22;36966;48.064;-0.792;2023-06-26T05:10:08;27.00;44.60
50955;DHT22;36966;48.064;-0.792;2023-06-26T05:12:30;27.00;44.60
50955;DHT22;36966;48.064;-0.792;2023-06-26T05:14:49;27.00;44.60
50955;DHT22;36966;48.064;-0.792;2023-06-26T05:17:08;27.00;44.60
50955;DHT22;36966;48.064;-0.792;2023-06-26T05:19:27;27.00;44.60
50955;DHT22;36966;48.064;-0.792;2023-06-26T05:21:50;27.00;44.70
50955;DHT22;36966;48.064;-0.792;2023-06-26T05:24:10;27.00;44.60
50955;DHT22;36966;48.064;-0.792;2023-06-26T05:26:32;27.00;44.70
50955;DHT22;36966;48.064;-0.792;2023-06-26T05:28:52;27.00;44.60
50955;DHT22;36966;48.064;-0.792;2023-06-26T05:31:11;27.00;44.70
50955;DHT22;36966;48.064;-0.792;2023-06-26T05:36:00;27.00;44.60
50955;DHT22;36966;48.064;-0.792;2023-06-26T05:38:21;26.90;44.80
50955;DHT22;36966;48.064;-0.792;2023-06-26T05:40:41;26.90;44.70
50955;DHT22;36966;48.064;-0.792;2023-06-26T05:43:00;26.90;44.70
50955;DHT22;36966;48.064;-0.792;2023-06-26T05:45:20;26.90;44.80
50955;DHT22;36966;48.064;-0.792;2023-06-26T05:47:39;26.90;44.70
50955;DHT22;36966;48.064;-0.792;2023-06-26T05:49:59;26.90;44.70
50955;DHT22;36966;48.064;-0.792;2023-06-26T05:52:22;26.90;44.90
50955;DHT22;36966;48.064;-0.792;2023-06-26T05:54:44;26.90;45.00
50955;DHT22;36966;48.064;-0.792;2023-06-26T05:57:04;26.90;44.90
50955;DHT22;36966;48.064;-0.792;2023-06-26T05:59:23;26.90;44.80
50955;DHT22;36966;48.064;-0.792;2023-06-26T06:01:43;26.90;45.00
50955;DHT22;36966;48.064;-0.792;2023-06-26T06:04:03;26.90;44.90
50955;DHT22;36966;48.064;-0.792;2023-06-26T06:06:22;26.90;45.00
50955;DHT22;36966;48.064;-0.792;2023-06-26T06:08:42;26.90;45.10
50955;DHT22;36966;48.064;-0.792;2023-06-26T06:11:04;26.90;45.00
50955;DHT22;36966;48.064;-0.792;2023-06-26T06:13:24;26.80;44.90
50955;DHT22;36966;48.064;-0.792;2023-06-26T06:15:43;26.90;45.00
50955;DHT22;36966;48.064;-0.792;2023-06-26T06:18:02;26.90;44.90
50955;DHT22;36966;48.064;-0.792;2023-06-26T06:20:22;27.00;45.00
50955;DHT22;36966;48.064;-0.792;2023-06-26T06:22:44;26.90;45.00
50955;DHT22;36966;48.064;-0.792;2023-06-26T06:25:13;26.90;44.90
50955;DHT22;36966;48.064;-0.792;2023-06-26T06:27:33;26.90;44.90
50955;DHT22;36966;48.064;-0.792;2023-06-26T06:29:52;26.90;44.90
50955;DHT22;36966;48.064;-0.792;2023-06-26T06:32:27;26.90;44.90
50955;DHT22;36966;48.064;-0.792;2023-06-26T06:34:48;27.00;44.90
50955;DHT22;36966;48.064;-0.792;2023-06-26T06:37:08;27.00;44.90
50955;DHT22;36966;48.064;-0.792;2023-06-26T06:39:27;27.00;44.80
50955;DHT22;36966;48.064;-0.792;2023-06-26T06:41:47;26.90;45.00
50955;DHT22;36966;48.064;-0.792;2023-06-26T06:44:06;27.00;44.90
50955;DHT22;36966;48.064;-0.792;2023-06-26T06:46:29;27.00;44.80
50955;DHT22;36966;48.064;-0.792;2023-06-26T06:48:48;27.00;45.00
50955;DHT22;36966;48.064;-0.792;2023-06-26T06:51:07;27.00;45.00
50955;DHT22;36966;48.064;-0.792;2023-06-26T06:53:27;27.00;45.00
50955;DHT22;36966;48.064;-0.792;2023-06-26T06:55:46;27.00;44.90
50955;DHT22;36966;48.064;-0.792;2023-06-26T06:58:05;27.00;45.00
50955;DHT22;36966;48.064;-0.792;2023-06-26T07:00:24;27.00;45.00
50955;DHT22;36966;48.064;-0.792;2023-06-26T07:02:44;27.00;45.00
50955;DHT22;36966;48.064;-0.792;2023-06-26T07:05:06;27.00;45.00
50955;DHT22;36966;48.064;-0.792;2023-06-26T07:07:28;27.00;44.90
50955;DHT22;36966;48.064;-0.792;2023-06-26T07:09:47;27.00;45.00
50955;DHT22;36966;48.064;-0.792;2023-06-26T07:12:06;27.00;45.00
50955;DHT22;36966;48.064;-0.792;2023-06-26T07:16:55;27.00;44.90
50955;DHT22;36966;48.064;-0.792;2023-06-26T07:19:15;27.10;44.90
50955;DHT22;36966;48.064;-0.792;2023-06-26T07:21:34;27.10;44.80
50955;DHT22;36966;48.064;-0.792;2023-06-26T07:23:54;27.10;44.70
50955;DHT22;36966;48.064;-0.792;2023-06-26T07:26:14;27.10;44.70
50955;DHT22;36966;48.064;-0.792;2023-06-26T07:28:33;27.10;44.50
50955;DHT22;36966;48.064;-0.792;2023-06-26T07:30:52;27.20;44.60
50955;DHT22;36966;48.064;-0.792;2023-06-26T07:33:11;27.20;44.50
50955;DHT22;36966;48.064;-0.792;2023-06-26T07:35:31;27.10;44.40
50955;DHT22;36966;48.064;-0.792;2023-06-26T07:37:50;27.20;44.50
50955;DHT22;36966;48.064;-0.792;2023-06-26T07:40:10;27.20;44.40
50955;DHT22;36966;48.064;-0.792;2023-06-26T07:42:29;27.20;43.40
50955;DHT22;36966;48.064;-0.792;2023-06-26T07:44:49;27.20;44.20
50955;DHT22;36966;48.064;-0.792;2023-06-26T07:47:08;27.20;43.90
50955;DHT22;36966;48.064;-0.792;2023-06-26T07:49:28;27.20;43.00
50955;DHT22;36966;48.064;-0.792;2023-06-26T07:51:50;27.10;43.90
50955;DHT22;36966;48.064;-0.792;2023-06-26T07:54:12;27.10;43.10
50955;DHT22;36966;48.064;-0.792;2023-06-26T07:56:55;27.20;43.50
50955;DHT22;36966;48.064;-0.792;2023-06-26T07:59:15;27.20;43.70
50955;DHT22;36966;48.064;-0.792;2023-06-26T08:01:34;27.20;43.50
50955;DHT22;36966;48.064;-0.792;2023-06-26T08:03:54;27.30;43.00
50955;DHT22;36966;48.064;-0.792;2023-06-26T08:06:13;27.30;43.00
50955;DHT22;36966;48.064;-0.792;2023-06-26T08:08:35;27.30;43.10
50955;DHT22;36966;48.064;-0.792;2023-06-26T08:10:55;27.30;43.20
50955;DHT22;36966;48.064;-0.792;2023-06-26T08:13:14;27.30;43.00
50955;DHT22;36966;48.064;-0.792;2023-06-26T08:15:33;27.40;43.10
50955;DHT22;36966;48.064;-0.792;2023-06-26T08:17:53;27.40;43.00
50955;DHT22;36966;48.064;-0.792;2023-06-26T08:20:12;27.40;42.80
50955;DHT22;36966;48.064;-0.792;2023-06-26T08:22:32;27.40;42.90
50955;DHT22;36966;48.064;-0.792;2023-06-26T08:24:51;27.50;42.90
50955;DHT22;36966;48.064;-0.792;2023-06-26T08:27:11;27.50;43.00
50955;DHT22;36966;48.064;-0.792;2023-06-26T08:29:30;27.50;42.90
50955;DHT22;36966;48.064;-0.792;2023-06-26T08:31:49;27.50;42.80
50955;DHT22;36966;48.064;-0.792;2023-06-26T08:34:09;27.50;42.50
50955;DHT22;36966;48.064;-0.792;2023-06-26T08:36:28;27.50;42.00
50955;DHT22;36966;48.064;-0.792;2023-06-26T08:38:47;27.50;42.10
50955;DHT22;36966;48.064;-0.792;2023-06-26T08:41:06;27.50;42.30
50955;DHT22;36966;48.064;-0.792;2023-06-26T08:43:26;27.60;42.60
50955;DHT22;36966;48.064;-0.792;2023-06-26T08:45:46;27.50;42.30
50955;DHT22;36966;48.064;-0.792;2023-06-26T08:48:10;27.50;42.60
50955;DHT22;36966;48.064;-0.792;2023-06-26T08:50:30;27.50;42.60
50955;DHT22;36966;48.064;-0.792;2023-06-26T08:55:27;27.50;41.70
50955;DHT22;36966;48.064;-0.792;2023-06-26T08:57:47;27.50;41.90
50955;DHT22;36966;48.064;-0.792;2023-06-26T09:00:07;27.50;41.50
50955;DHT22;36966;48.064;-0.792;2023-06-26T09:02:27;27.50;41.30
50955;DHT22;36966;48.064;-0.792;2023-06-26T09:04:47;27.50;41.30
50955;DHT22;36966;48.064;-0.792;2023-06-26T09:07:08;27.50;41.60
50955;DHT22;36966;48.064;-0.792;2023-06-26T09:09:28;27.50;41.50
50955;DHT22;36966;48.064;-0.792;2023-06-26T09:11:47;27.40;41.40
50955;DHT22;36966;48.064;-0.792;2023-06-26T09:14:06;27.40;41.30
50955;DHT22;36966;48.064;-0.792;2023-06-26T09:16:28;27.50;41.10
50955;DHT22;36966;48.064;-0.792;2023-06-26T09:18:47;27.40;40.20
50955;DHT22;36966;48.064;-0.792;2023-06-26T09:21:08;27.40;40.30
50955;DHT22;36966;48.064;-0.792;2023-06-26T09:23:35;27.50;39.40
50955;DHT22;36966;48.064;-0.792;2023-06-26T09:25:55;27.50;39.70
50955;DHT22;36966;48.064;-0.792;2023-06-26T09:28:14;27.50;40.10
50955;DHT22;36966;48.064;-0.792;2023-06-26T09:30:34;27.50;40.10
50955;DHT22;36966;48.064;-0.792;2023-06-26T09:32:54;27.50;39.40
50955;DHT22;36966;48.064;-0.792;2023-06-26T09:35:14;27.50;40.00
50955;DHT22;36966;48.064;-0.792;2023-06-26T09:37:34;27.50;39.10
50955;DHT22;36966;48.064;-0.792;2023-06-26T09:39:53;27.50;39.80
50955;DHT22;36966;48.064;-0.792;2023-06-26T09:42:15;27.60;40.30
50955;DHT22;36966;48.064;-0.792;2023-06-26T09:44:35;27.60;39.60
50955;DHT22;36966;48.064;-0.792;2023-06-26T09:46:57;27.70;38.90
50955;DHT22;36966;48.064;-0.792;2023-06-26T09:49:17;27.70;39.10
50955;DHT22;36966;48.064;-0.792;2023-06-26T09:51:37;27.60;39.70
50955;DHT22;36966;48.064;-0.792;2023-06-26T09:53:57;27.70;40.20
50955;DHT22;36966;48.064;-0.792;2023-06-26T09:56:16;27.70;38.90
50955;DHT22;36966;48.064;-0.792;2023-06-26T09:58:40;27.70;39.20
50955;DHT22;36966;48.064;-0.792;2023-06-26T10:01:00;27.70;39.20
50955;DHT22;36966;48.064;-0.792;2023-06-26T10:03:28;27.80;38.40
50955;DHT22;36966;48.064;-0.792;2023-06-26T10:05:47;27.80;38.50
50955;DHT22;36966;48.064;-0.792;2023-06-26T10:08:07;27.80;39.20
50955;DHT22;36966;48.064;-0.792;2023-06-26T10:10:27;27.80;39.10
50955;DHT22;36966;48.064;-0.792;2023-06-26T10:12:48;27.80;39.50
50955;DHT22;36966;48.064;-0.792;2023-06-26T10:15:08;27.80;39.80
50955;DHT22;36966;48.064;-0.792;2023-06-26T10:17:32;27.80;40.20
50955;DHT22;36966;48.064;-0.792;2023-06-26T10:19:53;27.80;40.00
50955;DHT22;36966;48.064;-0.792;2023-06-26T10:22:16;27.80;39.70
50955;DHT22;36966;48.064;-0.792;2023-06-26T10:24:36;27.80;39.90
50955;DHT22;36966;48.064;-0.792;2023-06-26T10:26:57;27.80;40.10
50955;DHT22;36966;48.064;-0.792;2023-06-26T10:29:18;27.80;40.10
50955;DHT22;36966;48.064;-0.792;2023-06-26T10:31:41;27.80;39.70
50955;DHT22;36966;48.064;-0.792;2023-06-26T10:34:02;27.80;40.00
50955;DHT22;36966;48.064;-0.792;2023-06-26T10:36:27;27.80;39.90
50955;DHT22;36966;48.064;-0.792;2023-06-26T10:38:51;27.80;39.30
50955;DHT22;36966;48.064;-0.792;2023-06-26T10:41:10;27.80;38.20
50955;DHT22;36966;48.064;-0.792;2023-06-26T10:43:30;27.80;39.10
50955;DHT22;36966;48.064;-0.792;2023-06-26T10:45:50;27.80;39.90
50955;DHT22;36966;48.064;-0.792;2023-06-26T10:48:14;27.90;38.80
50955;DHT22;36966;48.064;-0.792;2023-06-26T10:50:34;27.90;39.50
50955;DHT22;36966;48.064;-0.792;2023-06-26T10:55:31;27.80;37.80
50955;DHT22;36966;48.064;-0.792;2023-06-26T10:57:50;27.80;37.70
50955;DHT22;36966;48.064;-0.792;2023-06-26T11:00:13;27.80;37.50
50955;DHT22;36966;48.064;-0.792;2023-06-26T11:02:46;27.80;37.30
50955;DHT22;36966;48.064;-0.792;2023-06-26T11:05:06;27.80;38.00
50955;DHT22;36966;48.064;-0.792;2023-06-26T11:07:26;27.80;38.60
50955;DHT22;36966;48.064;-0.792;2023-06-26T11:12:43;27.80;39.50
50955;DHT22;36966;48.064;-0.792;2023-06-26T11:15:13;27.90;38.40
50955;DHT22;36966;48.064;-0.792;2023-06-26T11:17:33;27.90;38.20
50955;DHT22;36966;48.064;-0.792;2023-06-26T11:19:53;27.90;39.00
50955;DHT22;36966;48.064;-0.792;2023-06-26T11:22:13;27.90;38.60
50955;DHT22;36966;48.064;-0.792;2023-06-26T11:24:34;27.90;37.70
50955;DHT22;36966;48.064;-0.792;2023-06-26T11:26:54;27.80;36.90
50955;DHT22;36966;48.064;-0.792;2023-06-26T11:29:13;27.70;36.50
50955;DHT22;36966;48.064;-0.792;2023-06-26T11:31:36;27.70;37.20
50955;DHT22;36966;48.064;-0.792;2023-06-26T11:33:58;27.70;37.90
50955;DHT22;36966;48.064;-0.792;2023-06-26T11:36:18;27.80;38.40
50955;DHT22;36966;48.064;-0.792;2023-06-26T11:38:40;27.80;38.80
50955;DHT22;36966;48.064;-0.792;2023-06-26T11:41:00;27.80;39.00
50955;DHT22;36966;48.064;-0.792;2023-06-26T11:43:19;27.90;39.50
50955;DHT22;36966;48.064;-0.792;2023-06-26T11:45:39;27.90;39.20
50955;DHT22;36966;48.064;-0.792;2023-06-26T11:48:00;27.90;39.40
50955;DHT22;36966;48.064;-0.792;2023-06-26T11:50:19;28.00;39.20
50955;DHT22;36966;48.064;-0.792;2023-06-26T11:52:40;28.00;39.20
50955;DHT22;36966;48.064;-0.792;2023-06-26T11:55:00;28.00;39.00
50955;DHT22;36966;48.064;-0.792;2023-06-26T11:57:19;28.00;39.00
50955;DHT22;36966;48.064;-0.792;2023-06-26T11:59:40;28.00;38.50
50955;DHT22;36966;48.064;-0.792;2023-06-26T12:02:00;28.10;37.90
50955;DHT22;36966;48.064;-0.792;2023-06-26T12:04:19;28.10;37.70
50955;DHT22;36966;48.064;-0.792;2023-06-26T12:06:40;28.10;37.60
50955;DHT22;36966;48.064;-0.792;2023-06-26T12:09:05;28.10;36.90
50955;DHT22;36966;48.064;-0.792;2023-06-26T12:11:28;28.00;37.30
50955;DHT22;36966;48.064;-0.792;2023-06-26T12:13:48;28.00;37.90
50955;DHT22;36966;48.064;-0.792;2023-06-26T12:16:08;28.00;38.20
50955;DHT22;36966;48.064;-0.792;2023-06-26T12:18:36;28.00;38.80
50955;DHT22;36966;48.064;-0.792;2023-06-26T12:20:59;28.00;39.00
50955;DHT22;36966;48.064;-0.792;2023-06-26T12:25:50;28.00;39.30
50955;DHT22;36966;48.064;-0.792;2023-06-26T12:28:17;28.00;39.20
50955;DHT22;36966;48.064;-0.792;2023-06-26T12:30:37;28.00;39.60
50955;DHT22;36966;48.064;-0.792;2023-06-26T12:32:56;28.10;39.60
50955;DHT22;36966;48.064;-0.792;2023-06-26T12:35:18;28.00;38.00
50955;DHT22;36966;48.064;-0.792;2023-06-26T12:37:38;28.00;38.80
50955;DHT22;36966;48.064;-0.792;2023-06-26T12:40:01;28.00;39.00
50955;DHT22;36966;48.064;-0.792;2023-06-26T12:42:21;28.00;39.00
50955;DHT22;36966;48.064;-0.792;2023-06-26T12:44:40;27.90;37.70
50955;DHT22;36966;48.064;-0.792;2023-06-26T12:47:00;27.90;37.50
50955;DHT22;36966;48.064;-0.792;2023-06-26T12:49:19;27.80;37.30
50955;DHT22;36966;48.064;-0.792;2023-06-26T12:51:39;27.90;36.50
50955;DHT22;36966;48.064;-0.792;2023-06-26T12:53:59;27.80;36.80
50955;DHT22;36966;48.064;-0.792;2023-06-26T12:56:18;27.80;36.50
50955;DHT22;36966;48.064;-0.792;2023-06-26T12:58:39;27.80;36.30
50955;DHT22;36966;48.064;-0.792;2023-06-26T13:01:05;27.80;35.80
50955;DHT22;36966;48.064;-0.792;2023-06-26T13:03:26;27.80;36.00
50955;DHT22;36966;48.064;-0.792;2023-06-26T13:05:45;27.80;35.60
50955;DHT22;36966;48.064;-0.792;2023-06-26T13:08:05;27.80;36.00
50955;DHT22;36966;48.064;-0.792;2023-06-26T13:10:24;27.80;35.60
50955;DHT22;36966;48.064;-0.792;2023-06-26T13:12:44;27.80;35.70
50955;DHT22;36966;48.064;-0.792;2023-06-26T13:15:11;27.80;35.70
50955;DHT22;36966;48.064;-0.792;2023-06-26T13:17:31;27.80;35.70
50955;DHT22;36966;48.064;-0.792;2023-06-26T13:19:50;27.70;34.50
50955;DHT22;36966;48.064;-0.792;2023-06-26T13:22:10;27.70;35.20
50955;DHT22;36966;48.064;-0.792;2023-06-26T13:24:31;27.70;35.20
50955;DHT22;36966;48.064;-0.792;2023-06-26T13:26:51;27.70;35.40
50955;DHT22;36966;48.064;-0.792;2023-06-26T13:29:11;27.80;35.40
50955;DHT22;36966;48.064;-0.792;2023-06-26T13:31:30;27.70;35.20
50955;DHT22;36966;48.064;-0.792;2023-06-26T13:33:49;27.70;35.30
50955;DHT22;36966;48.064;-0.792;2023-06-26T13:36:10;27.70;35.40
50955;DHT22;36966;48.064;-0.792;2023-06-26T13:38:29;27.70;35.30
50955;DHT22;36966;48.064;-0.792;2023-06-26T13:40:49;27.70;35.30
50955;DHT22;36966;48.064;-0.792;2023-06-26T13:43:08;27.70;35.00
50955;DHT22;36966;48.064;-0.792;2023-06-26T13:45:27;27.70;35.10
50955;DHT22;36966;48.064;-0.792;2023-06-26T13:47:47;27.70;35.20
50955;DHT22;36966;48.064;-0.792;2023-06-26T13:50:07;27.70;35.20
50955;DHT22;36966;48.064;-0.792;2023-06-26T13:52:29;27.60;35.10
50955;DHT22;36966;48.064;-0.792;2023-06-26T13:54:48;27.60;35.40
50955;DHT22;36966;48.064;-0.792;2023-06-26T13:57:08;27.60;35.40
50955;DHT22;36966;48.064;-0.792;2023-06-26T13:59:28;27.60;35.60
50955;DHT22;36966;48.064;-0.792;2023-06-26T14:01:47;27.60;35.50
50955;DHT22;36966;48.064;-0.792;2023-06-26T14:04:06;27.60;35.40
50955;DHT22;36966;48.064;-0.792;2023-06-26T14:06:26;27.50;35.40
50955;DHT22;36966;48.064;-0.792;2023-06-26T14:08:45;27.50;35.40
50955;DHT22;36966;48.064;-0.792;2023-06-26T14:11:05;27.60;35.50
50955;DHT22;36966;48.064;-0.792;2023-06-26T14:13:24;27.50;35.80
50955;DHT22;36966;48.064;-0.792;2023-06-26T14:15:43;27.60;35.70
50955;DHT22;36966;48.064;-0.792;2023-06-26T14:18:02;27.50;35.90
50955;DHT22;36966;48.064;-0.792;2023-06-26T14:20:22;27.60;35.80
50955;DHT22;36966;48.064;-0.792;2023-06-26T14:22:42;27.50;35.70
50955;DHT22;36966;48.064;-0.792;2023-06-26T14:25:02;27.50;35.50
50955;DHT22;36966;48.064;-0.792;2023-06-26T14:27:21;27.50;35.60
50955;DHT22;36966;48.064;-0.792;2023-06-26T14:29:40;27.50;35.50
50955;DHT22;36966;48.064;-0.792;2023-06-26T14:32:00;27.50;35.50
50955;DHT22;36966;48.064;-0.792;2023-06-26T14:34:19;27.50;35.60
50955;DHT22;36966;48.064;-0.792;2023-06-26T14:36:38;27.50;35.60
50955;DHT22;36966;48.064;-0.792;2023-06-26T14:38:57;27.50;35.70
50955;DHT22;36966;48.064;-0.792;2023-06-26T14:41:18;27.50;35.80
50955;DHT22;36966;48.064;-0.792;2023-06-26T14:43:38;27.50;36.10
50955;DHT22;36966;48.064;-0.792;2023-06-26T14:45:57;27.50;36.10
50955;DHT22;36966;48.064;-0.792;2023-06-26T14:48:16;27.50;36.20
50955;DHT22;36966;48.064;-0.792;2023-06-26T14:50:36;27.50;36.30
50955;DHT22;36966;48.064;-0.792;2023-06-26T14:52:55;27.50;36.60